Accueil
METAR-TAF:

METAR-TAF

Aéroports :

Aéroport de Copenhague

Copenhague, Danemark

latitude: 55-37N, longitude: 012-39E, altitude: 5 m

Observation

Le bulletin a été fait il y a 41 minutes, à 15:22 UTC
Vent 8 kt de est
Température 10°C
Humidité 87%
Pression 1014 hPa
Visibilité 10 km ou plus
Ciel couvert à une hauteur de 1000 ft

METAR: EKCH 211522Z 09008KT 9999 OVC010 10/08 Q1014 NOSIG

Heure: 17:03 (16:03 UTC)

Prévision

Le bulletin a été fait il y a 4 heures et 53 minutes, à 11:10 UTC
Prévision valable du 21 à 12 UTC au 22 à 12 UTC
Vent 12 kt de est
Visibilité: 6000 m
Nuages épars à une hauteur de 600 ft
Nuages fragmentés à une hauteur de 1000 ft
Temporairement
du 21 à 12 UTC au 22 à 12 UTC
Visibilité: 3000 m
Nuages fragmentés à une hauteur de 500 ft
pluie faible, bruine, brume

TAF: EKCH 211110Z 2112/2212 10012KT 6000 SCT006 BKN010 TEMPO 2112/2212 3000 -RADZ BR BKN005

Observations et prévisions météorologiques de plus de 4000 aéroports (messages METAR et TAF).

Les stations disponibles sont représentées par des disques jaunes et rouges sur la carte.

Passer la souris dessus pour voir le nom de la station.

Cliquer dessus pour voir les observations et prévisions météorologiques.

Pour changer de carte: cliquez sur les boutons verts avec une croix noire pour zoomer, sur le bouton vert avec un tiret pour effectuer un zoom arrière, ou sur les flèches vertes pour les cartes adjacentes.


METAR-TAF: